Time;durP1;ratioP1;P1;durP2;ratioP2;P2;SDS_P1;SDS_P2;PMS_P1;PMS_P2;Temp;Humidity;BMP_temperature;BMP_pressure;BME280_temperature;BME280_humidity;BME280_pressure;Samples;Min_cycle;Max_cycle;Signal;HPM_P1;HPM_P2
2022/11/08 00:01:32;;;;;;;3.45;0.70;;;;;;;-142.37;100.00;59669.53;5032902;28;20044;-56
2022/11/08 00:04:00;;;;;;;3.22;1.10;;;;;;;-142.37;100.00;59669.53;5031658;28;20022;-56
2022/11/08 00:14:38;;;;;;;4.10;1.15;;;;;;;-142.37;100.00;59669.53;5032642;28;20429;-55
2022/11/08 00:17:04;;;;;;;3.35;0.55;;;;;;;-142.37;100.00;59669.53;5032900;28;20033;-56
2022/11/08 00:19:29;;;;;;;3.35;0.40;;;;;;;-142.37;100.00;59669.53;5031358;28;20037;-57
2022/11/08 00:21:55;;;;;;;3.15;0.40;;;;;;;-142.37;100.00;59669.53;5032461;28;20025;-56
2022/11/08 00:24:21;;;;;;;0.73;0.28;;;;;;;-142.37;100.00;59669.53;5031154;28;20374;-56
2022/11/08 00:26:46;;;;;;;1.48;0.40;;;;;;;-142.37;100.00;59669.53;5030943;28;20116;-56
2022/11/08 00:29:12;;;;;;;1.05;0.35;;;;;;;-142.37;100.00;59669.53;5030713;28;20125;-56
2022/11/08 00:31:37;;;;;;;1.50;0.40;;;;;;;-142.37;100.00;59669.53;5030809;28;20025;-57
2022/11/08 00:34:03;;;;;;;5.95;1.35;;;;;;;-142.37;100.00;59669.53;5032979;28;20033;-58
2022/11/08 00:36:29;;;;;;;0.32;0.20;;;;;;;-142.37;100.00;59669.53;5032591;28;20021;-56
2022/11/08 00:38:54;;;;;;;1.45;0.20;;;;;;;-142.37;100.00;59669.53;5031065;28;20385;-56
2022/11/08 00:41:20;;;;;;;2.28;0.47;;;;;;;-142.37;100.00;59669.53;5030996;28;20056;-55
2022/11/08 00:43:46;;;;;;;0.90;0.20;;;;;;;-142.37;100.00;59669.53;5032633;28;20057;-56
2022/11/08 00:46:11;;;;;;;1.23;0.15;;;;;;;-142.37;100.00;59669.53;5032346;28;20029;-57
2022/11/08 00:48:37;;;;;;;0.85;0.20;;;;;;;-142.37;100.00;59669.53;5032169;28;20029;-58
2022/11/08 00:51:05;;;;;;;0.68;0.45;;;;;;;-142.37;100.00;59669.53;5032034;28;20041;-57
2022/11/08 00:53:31;;;;;;;1.55;0.17;;;;;;;-142.37;100.00;59669.53;5032363;28;20033;-57
2022/11/08 00:56:01;;;;;;;0.95;0.20;;;;;;;-142.37;100.00;59669.53;5030857;28;20075;-57
2022/11/08 00:58:27;;;;;;;0.50;0.10;;;;;;;-142.37;100.00;59669.53;5032312;28;20112;-56
2022/11/08 01:00:54;;;;;;;1.00;0.13;;;;;;;-142.37;100.00;59669.53;5032271;28;20068;-58
2022/11/08 01:03:20;;;;;;;0.35;0.10;;;;;;;-142.37;100.00;59669.53;5032041;28;20030;-59
2022/11/08 01:05:47;;;;;;;4.22;0.50;;;;;;;-142.37;100.00;59669.53;5032088;28;20406;-58
2022/11/08 01:08:13;;;;;;;0.85;0.28;;;;;;;-142.37;100.00;59669.53;5030922;28;20393;-58
2022/11/08 01:10:44;;;;;;;0.95;0.20;;;;;;;-142.37;100.00;59669.53;5030430;28;20025;-59
2022/11/08 01:13:10;;;;;;;1.63;0.30;;;;;;;-142.37;100.00;59669.53;5031733;28;20397;-58
2022/11/08 01:15:41;;;;;;;2.00;0.20;;;;;;;-142.37;100.00;59669.53;5032093;28;20112;-58
2022/11/08 01:18:09;;;;;;;0.60;0.20;;;;;;;-142.37;100.00;59669.53;5032015;28;20079;-57
2022/11/08 01:20:39;;;;;;;1.67;0.15;;;;;;;-142.37;100.00;59669.53;5031943;28;20064;-58
2022/11/08 01:23:05;;;;;;;1.45;0.10;;;;;;;-142.37;100.00;59669.53;5031708;28;20494;-57
2022/11/08 01:25:31;;;;;;;0.43;0.13;;;;;;;-142.37;100.00;59669.53;5030385;28;20022;-58
2022/11/08 01:27:57;;;;;;;1.15;0.40;;;;;;;-142.37;100.00;59669.53;5032048;28;20389;-58
2022/11/08 01:30:22;;;;;;;0.93;0.25;;;;;;;-142.37;100.00;59669.53;5032160;28;20029;-58
2022/11/08 01:32:48;;;;;;;0.10;0.00;;;;;;;-142.37;100.00;59669.53;5030516;28;20390;-58
2022/11/08 01:35:13;;;;;;;1.45;0.20;;;;;;;-142.37;100.00;59669.53;5031387;28;20501;-57
2022/11/08 01:37:39;;;;;;;0.95;0.10;;;;;;;-142.37;100.00;59669.53;5031534;28;20029;-57
2022/11/08 01:40:05;;;;;;;1.40;0.30;;;;;;;-142.37;100.00;59669.53;5031618;28;20087;-57
2022/11/08 01:42:32;;;;;;;1.08;0.10;;;;;;;-142.37;100.00;59669.53;5034855;28;20119;-58
2022/11/08 01:45:04;;;;;;;1.73;0.50;;;;;;;-142.37;100.00;59669.53;5035318;28;20432;-57
2022/11/08 01:47:29;;;;;;;0.30;0.20;;;;;;;-142.37;100.00;59669.53;5035610;28;20087;-58
2022/11/08 01:50:10;;;;;;;0.93;0.15;;;;;;;-142.37;100.00;59669.53;5034339;28;20033;-58
2022/11/08 01:52:48;;;;;;;0.57;0.10;;;;;;;-142.37;100.00;59669.53;5035761;28;20029;-58
2022/11/08 01:55:14;;;;;;;0.80;0.17;;;;;;;-142.37;100.00;59669.53;5035296;28;20035;-58
2022/11/08 01:57:56;;;;;;;1.08;0.10;;;;;;;-142.37;100.00;59669.53;5034107;28;20120;-58
2022/11/08 02:00:22;;;;;;;1.48;0.38;;;;;;;-142.37;100.00;59669.53;5034237;28;20032;-58
2022/11/08 02:02:57;;;;;;;0.22;0.00;;;;;;;-142.37;100.00;59669.53;5035186;28;20116;-59
2022/11/08 02:05:26;;;;;;;1.60;0.10;;;;;;;-142.37;100.00;59669.53;5067581;28;20022;-58
2022/11/08 02:08:03;;;;;;;0.45;0.00;;;;;;;-142.37;100.00;59669.53;5034266;28;20080;-58
2022/11/08 02:10:42;;;;;;;0.57;0.08;;;;;;;-142.37;100.00;59669.53;5033726;28;20080;-58
2022/11/08 02:13:11;;;;;;;1.25;0.20;;;;;;;-142.37;100.00;59669.53;5034773;28;20040;-58
2022/11/08 02:15:37;;;;;;;1.13;0.35;;;;;;;-142.37;100.00;59669.53;5035387;28;20048;-58
2022/11/08 02:18:03;;;;;;;1.77;0.10;;;;;;;-142.37;100.00;59669.53;5035084;28;20021;-59
2022/11/08 02:20:29;;;;;;;0.22;0.10;;;;;;;-142.37;100.00;59669.53;5033576;28;20052;-58
2022/11/08 02:22:59;;;;;;;0.10;0.00;;;;;;;-142.37;100.00;59669.53;5035145;28;20210;-58
2022/11/08 02:25:25;;;;;;;0.70;0.65;;;;;;;-142.37;100.00;59669.53;5034766;28;20029;-58
2022/11/08 02:27:50;;;;;;;0.45;0.03;;;;;;;-142.37;100.00;59669.53;5034831;28;20025;-57
2022/11/08 02:30:16;;;;;;;0.10;0.00;;;;;;;-142.37;100.00;59669.53;5034932;28;20037;-58
2022/11/08 02:32:42;;;;;;;1.20;0.57;;;;;;;-142.37;100.00;59669.53;5034798;28;20429;-58
2022/11/08 02:35:16;;;;;;;1.73;0.50;;;;;;;-142.37;100.00;59669.53;5034369;28;20167;-58
2022/11/08 02:37:42;;;;;;;0.32;0.10;;;;;;;-142.37;100.00;59669.53;5034594;28;20033;-58
2022/11/08 02:40:08;;;;;;;1.08;0.20;;;;;;;-142.37;100.00;59669.53;5034552;28;20422;-59
2022/11/08 02:42:37;;;;;;;0.30;0.13;;;;;;;-142.37;100.00;59669.53;5035017;28;20053;-59
2022/11/08 02:45:05;;;;;;;0.38;0.08;;;;;;;-142.37;100.00;59669.53;5034410;28;20036;-59
2022/11/08 02:47:30;;;;;;;0.10;0.10;;;;;;;-142.37;100.00;59669.53;5034320;28;20025;-58
2022/11/08 02:49:56;;;;;;;1.92;0.10;;;;;;;-142.37;100.00;59669.53;5034525;28;20038;-58
2022/11/08 02:52:22;;;;;;;1.27;0.40;;;;;;;-142.37;100.00;59669.53;5033997;28;20029;-58
2022/11/08 02:54:47;;;;;;;0.20;0.10;;;;;;;-142.37;100.00;59669.53;5032631;28;20485;-59
2022/11/08 02:57:13;;;;;;;0.10;0.00;;;;;;;-142.37;100.00;59669.53;5033100;28;20394;-59
2022/11/08 02:59:39;;;;;;;1.15;0.10;;;;;;;-142.37;100.00;59669.53;5033033;28;20444;-58
2022/11/08 03:02:04;;;;;;;1.30;0.10;;;;;;;-142.37;100.00;59669.53;5034318;28;20029;-58
2022/11/08 03:04:30;;;;;;;0.60;0.20;;;;;;;-142.37;100.00;59669.53;5032899;28;20041;-58
2022/11/08 03:06:55;;;;;;;2.00;0.10;;;;;;;-142.37;100.00;59669.53;5034435;28;20155;-59
2022/11/08 03:09:21;;;;;;;0.15;0.10;;;;;;;-142.37;100.00;59669.53;5034214;28;20078;-59
2022/11/08 03:11:46;;;;;;;0.75;0.10;;;;;;;-142.37;100.00;59669.53;5034019;28;20033;-58
2022/11/08 03:14:12;;;;;;;1.30;0.10;;;;;;;-142.37;100.00;59669.53;5034451;28;20087;-59
2022/11/08 03:16:37;;;;;;;0.60;0.00;;;;;;;-142.37;100.00;59669.53;5034003;28;20453;-59
2022/11/08 03:19:03;;;;;;;0.30;0.10;;;;;;;-142.37;100.00;59669.53;5033854;28;20029;-58
2022/11/08 03:21:30;;;;;;;0.85;0.10;;;;;;;-142.37;100.00;59669.53;5034252;28;20036;-60
2022/11/08 03:23:56;;;;;;;0.47;0.10;;;;;;;-142.37;100.00;59669.53;5033547;28;20137;-58
2022/11/08 03:26:22;;;;;;;0.35;0.10;;;;;;;-142.37;100.00;59669.53;5033800;28;20454;-59
2022/11/08 03:28:47;;;;;;;0.15;0.00;;;;;;;-142.37;100.00;59669.53;5032548;28;20025;-59
2022/11/08 03:31:13;;;;;;;0.30;0.10;;;;;;;-142.37;100.00;59669.53;5032165;28;20060;-58
2022/11/08 03:33:38;;;;;;;0.75;0.10;;;;;;;-142.37;100.00;59669.53;5033692;28;20051;-59
2022/11/08 03:36:04;;;;;;;0.10;0.00;;;;;;;-142.37;100.00;59669.53;5032243;28;20025;-60
2022/11/08 03:38:30;;;;;;;0.20;0.00;;;;;;;-142.37;100.00;59669.53;5033466;28;20059;-59
2022/11/08 03:40:56;;;;;;;3.38;0.13;;;;;;;-142.37;100.00;59669.53;5033439;28;20059;-61
2022/11/08 03:43:21;;;;;;;1.13;0.20;;;;;;;-142.37;100.00;59669.53;5033624;28;20032;-59
2022/11/08 03:45:47;;;;;;;0.30;0.20;;;;;;;-142.37;100.00;59669.53;5032301;28;20029;-59
2022/11/08 03:48:12;;;;;;;2.85;0.10;;;;;;;-142.37;100.00;59669.53;5033558;28;20029;-60
2022/11/08 03:50:38;;;;;;;0.15;0.05;;;;;;;-142.37;100.00;59669.53;5033344;28;20439;-60
2022/11/08 03:53:04;;;;;;;0.82;0.15;;;;;;;-142.37;100.00;59669.53;5031810;28;20072;-59
2022/11/08 03:55:29;;;;;;;0.45;0.15;;;;;;;-142.37;100.00;59669.53;5033464;28;20029;-59
2022/11/08 03:57:55;;;;;;;0.50;0.10;;;;;;;-142.37;100.00;59669.53;5032028;28;20025;-59
2022/11/08 04:00:26;;;;;;;0.88;0.08;;;;;;;-142.37;100.00;59669.53;5033245;28;20030;-59
2022/11/08 04:02:51;;;;;;;2.55;0.40;;;;;;;-142.37;100.00;59669.53;5033245;28;20029;-59
2022/11/08 04:05:18;;;;;;;0.08;0.00;;;;;;;-142.37;100.00;59669.53;5032850;28;20109;-59
2022/11/08 04:07:43;;;;;;;0.38;0.20;;;;;;;-142.37;100.00;59669.53;5033019;28;20034;-59
2022/11/08 04:10:10;;;;;;;0.82;0.13;;;;;;;-142.37;100.00;59669.53;5031778;28;20041;-60
2022/11/08 04:15:26;;;;;;;2.28;0.30;;;;;;;-142.37;100.00;59669.53;5033184;28;20532;-60
2022/11/08 04:23:22;;;;;;;0.65;0.20;;;;;;;-142.37;100.00;59669.53;5032423;28;20064;-59
2022/11/08 04:25:54;;;;;;;0.68;0.10;;;;;;;-142.37;100.00;59669.53;5031277;28;20033;-58
2022/11/08 04:28:23;;;;;;;0.20;0.10;;;;;;;-142.37;100.00;59669.53;5032568;28;20393;-60
2022/11/08 04:30:56;;;;;;;3.13;0.10;;;;;;;-142.37;100.00;59669.53;5031434;28;20063;-59
2022/11/08 04:33:22;;;;;;;0.73;0.28;;;;;;;-142.37;100.00;59669.53;5032649;28;20126;-59
2022/11/08 04:35:48;;;;;;;0.17;0.10;;;;;;;-142.37;100.00;59669.53;5031076;28;20084;-59
2022/11/08 04:38:14;;;;;;;0.10;0.10;;;;;;;-142.37;100.00;59669.53;5031339;28;20088;-59
2022/11/08 04:40:39;;;;;;;0.30;0.10;;;;;;;-142.37;100.00;59669.53;5031170;28;20025;-60
2022/11/08 04:43:05;;;;;;;1.10;0.10;;;;;;;-142.37;100.00;59669.53;5032108;28;20029;-61
2022/11/08 04:45:30;;;;;;;0.22;0.10;;;;;;;-142.37;100.00;59669.53;5032499;28;20025;-60
2022/11/08 04:47:56;;;;;;;0.15;0.10;;;;;;;-142.37;100.00;59669.53;5032366;28;20474;-61
2022/11/08 04:50:21;;;;;;;0.75;0.30;;;;;;;-142.37;100.00;59669.53;5030870;28;20026;-61
2022/11/08 04:52:52;;;;;;;1.95;0.40;;;;;;;-142.37;100.00;59669.53;5031812;28;20033;-62
2022/11/08 04:55:18;;;;;;;1.10;0.40;;;;;;;-142.37;100.00;59669.53;5030619;28;20051;-62
2022/11/08 04:57:44;;;;;;;0.40;0.20;;;;;;;-142.37;100.00;59669.53;5032065;28;20034;-62
2022/11/08 05:00:10;;;;;;;1.83;0.20;;;;;;;-142.37;100.00;59669.53;5032266;28;20498;-63
2022/11/08 05:02:35;;;;;;;1.42;0.28;;;;;;;-142.37;100.00;59669.53;5064110;28;20021;-63
2022/11/08 05:05:01;;;;;;;0.70;0.20;;;;;;;-142.37;100.00;59669.53;5032251;28;20037;-62
2022/11/08 05:07:28;;;;;;;1.50;0.30;;;;;;;-142.37;100.00;59669.53;5032294;28;20044;-62
2022/11/08 05:09:54;;;;;;;0.63;0.30;;;;;;;-142.37;100.00;59669.53;5031769;28;20422;-63
2022/11/08 05:12:20;;;;;;;0.10;0.05;;;;;;;-142.37;100.00;59669.53;5030315;28;20029;-62
2022/11/08 05:14:46;;;;;;;0.82;0.20;;;;;;;-142.37;100.00;59669.53;5032325;28;20033;-62
2022/11/08 05:17:11;;;;;;;1.92;0.20;;;;;;;-142.37;100.00;59669.53;5036620;28;20091;-62
2022/11/08 05:25:05;;;;;;;1.52;0.28;;;;;;;-142.37;100.00;59669.53;5037977;28;20036;-64
2022/11/08 05:27:31;;;;;;;0.95;0.30;;;;;;;-142.37;100.00;59669.53;5038542;28;20112;-64
2022/11/08 05:29:56;;;;;;;1.67;0.52;;;;;;;-142.37;100.00;59669.53;5037988;28;20383;-64
2022/11/08 05:32:22;;;;;;;1.67;0.75;;;;;;;-142.37;100.00;59669.53;5037044;28;20029;-65
2022/11/08 05:34:48;;;;;;;2.03;0.43;;;;;;;-142.37;100.00;59669.53;5038191;28;20029;-66
2022/11/08 05:37:13;;;;;;;3.00;0.40;;;;;;;-142.37;100.00;59669.53;5038105;28;20053;-66
2022/11/08 05:39:39;;;;;;;1.10;0.60;;;;;;;-142.37;100.00;59669.53;5037837;28;20025;-67
2022/11/08 05:42:04;;;;;;;1.75;0.40;;;;;;;-142.37;100.00;59669.53;5037008;28;20073;-65
2022/11/08 05:44:30;;;;;;;1.67;0.30;;;;;;;-142.37;100.00;59669.53;5036881;28;20029;-65
2022/11/08 05:46:55;;;;;;;3.58;0.50;;;;;;;-142.37;100.00;59669.53;5038355;28;20025;-64
2022/11/08 05:49:21;;;;;;;1.17;0.50;;;;;;;-142.37;100.00;59669.53;5037647;28;20417;-65
2022/11/08 05:51:47;;;;;;;5.80;0.80;;;;;;;-142.37;100.00;59669.53;5037939;28;20041;-66
2022/11/08 05:54:13;;;;;;;4.72;0.52;;;;;;;-142.37;100.00;59669.53;5038527;28;20025;-66
2022/11/08 05:56:38;;;;;;;2.30;0.40;;;;;;;-142.37;100.00;59669.53;5038273;28;20055;-66
2022/11/08 05:59:04;;;;;;;2.15;0.47;;;;;;;-142.37;100.00;59669.53;5037494;28;20056;-67
2022/11/08 06:01:30;;;;;;;1.63;0.68;;;;;;;-142.37;100.00;59669.53;5036540;28;20033;-67
2022/11/08 06:03:56;;;;;;;1.33;0.50;;;;;;;-142.37;100.00;59669.53;5038153;28;20032;-67
2022/11/08 06:06:23;;;;;;;2.58;0.50;;;;;;;-142.37;100.00;59669.53;5036444;28;20053;-67
2022/11/08 06:08:48;;;;;;;1.58;0.35;;;;;;;-142.37;100.00;59669.53;5037852;28;20485;-67
2022/11/08 06:11:25;;;;;;;2.97;0.45;;;;;;;-142.37;100.00;59669.53;5037493;28;20068;-68
2022/11/08 06:13:52;;;;;;;3.28;0.60;;;;;;;-142.37;100.00;59669.53;5038187;28;20382;-68
2022/11/08 06:16:19;;;;;;;3.13;0.50;;;;;;;-142.37;100.00;59669.53;5036335;28;20083;-68
2022/11/08 06:18:45;;;;;;;0.30;0.30;;;;;;;-142.37;100.00;59669.53;5036216;28;20025;-69
2022/11/08 06:21:14;;;;;;;2.80;0.40;;;;;;;-142.37;100.00;59669.53;5036114;28;20022;-70
2022/11/08 06:23:40;;;;;;;3.00;0.55;;;;;;;-142.37;100.00;59669.53;5035421;28;20056;-69
2022/11/08 06:26:08;;;;;;;1.20;0.40;;;;;;;-142.37;100.00;59669.53;5037623;28;20045;-71
2022/11/08 06:28:34;;;;;;;0.75;0.28;;;;;;;-142.37;100.00;59669.53;5034002;28;20029;-69
2022/11/08 06:31:01;;;;;;;1.42;0.30;;;;;;;-142.37;100.00;59669.53;5033845;28;20103;-70
2022/11/08 06:33:27;;;;;;;2.08;0.70;;;;;;;-142.37;100.00;59669.53;5032273;28;20079;-73
2022/11/08 06:35:53;;;;;;;0.75;0.40;;;;;;;-142.37;100.00;59669.53;5032619;28;20033;-72
2022/11/08 06:38:19;;;;;;;6.85;1.77;;;;;;;-142.37;100.00;59669.53;5033740;28;20022;-73
2022/11/08 06:40:45;;;;;;;4.88;0.77;;;;;;;-142.37;100.00;59669.53;5032478;28;20405;-73
2022/11/08 06:43:11;;;;;;;3.13;0.80;;;;;;;-142.37;100.00;59669.53;5033777;28;20084;-74
2022/11/08 06:45:37;;;;;;;0.90;0.63;;;;;;;-142.37;100.00;59669.53;5033288;28;20029;-73
2022/11/08 06:48:04;;;;;;;2.80;1.00;;;;;;;-142.37;100.00;59669.53;5032834;28;20037;-73
2022/11/08 06:50:31;;;;;;;1.95;0.73;;;;;;;-142.37;100.00;59669.53;5032243;28;20069;-74
2022/11/08 06:52:59;;;;;;;1.98;0.85;;;;;;;-142.37;100.00;59669.53;5033674;28;20112;-77
2022/11/08 06:55:25;;;;;;;2.13;1.00;;;;;;;-142.37;100.00;59669.53;5033028;28;20083;-74
2022/11/08 06:57:51;;;;;;;3.45;1.13;;;;;;;-142.37;100.00;59669.53;5033347;28;20025;-75
2022/11/08 07:00:17;;;;;;;1.20;0.57;;;;;;;-142.37;100.00;59669.53;5031633;28;20068;-76
2022/11/08 07:02:43;;;;;;;2.75;0.65;;;;;;;-142.37;100.00;59669.53;5030732;28;20048;-74
2022/11/08 07:05:10;;;;;;;2.35;0.90;;;;;;;-142.37;100.00;59669.53;5032034;28;20112;-72
2022/11/08 07:07:36;;;;;;;2.05;0.93;;;;;;;-142.37;100.00;59669.53;5033183;28;20033;-75
2022/11/08 07:10:02;;;;;;;2.60;0.80;;;;;;;-142.37;100.00;59669.53;5032690;28;20459;-76
2022/11/08 07:12:28;;;;;;;2.15;0.68;;;;;;;-142.37;100.00;59669.53;5034149;28;20112;-76
2022/11/08 07:14:54;;;;;;;3.03;0.70;;;;;;;-142.37;100.00;59669.53;5033354;28;20052;-77
2022/11/08 07:17:19;;;;;;;7.57;1.00;;;;;;;-142.37;100.00;59669.53;5035788;28;20064;-78
2022/11/08 07:19:45;;;;;;;2.08;0.75;;;;;;;-142.37;100.00;59669.53;5035846;28;20113;-77
2022/11/08 07:22:10;;;;;;;6.07;0.82;;;;;;;-142.37;100.00;59669.53;5032413;28;20429;-76
2022/11/08 07:24:36;;;;;;;12.07;9.00;;;;;;;-142.37;100.00;59669.53;5032703;28;20060;-73
2022/11/08 07:27:02;;;;;;;1.75;1.08;;;;;;;-142.37;100.00;59669.53;5033911;28;20156;-76
2022/11/08 07:29:27;;;;;;;2.03;0.60;;;;;;;-142.37;100.00;59669.53;5035223;28;20036;-79
2022/11/08 07:31:53;;;;;;;2.05;0.80;;;;;;;-142.37;100.00;59669.53;5035932;28;20029;-82
2022/11/08 07:34:19;;;;;;;1.50;0.85;;;;;;;-142.37;100.00;59669.53;5036067;28;20026;-77
2022/11/08 07:36:45;;;;;;;7.28;1.33;;;;;;;-142.37;100.00;59669.53;5038578;28;20045;-80
2022/11/08 07:39:11;;;;;;;1.90;1.00;;;;;;;-142.37;100.00;59669.53;5037388;28;20026;-79
2022/11/08 07:41:36;;;;;;;3.20;0.95;;;;;;;-142.37;100.00;59669.53;5035399;28;20100;-81
2022/11/08 07:44:02;;;;;;;4.30;0.90;;;;;;;-142.37;100.00;59669.53;5036420;28;20029;-80
2022/11/08 07:46:27;;;;;;;6.68;1.65;;;;;;;-142.37;100.00;59669.53;5036396;28;20537;-80
2022/11/08 07:48:53;;;;;;;1.55;0.70;;;;;;;-142.37;100.00;59669.53;5034449;28;20048;-76
2022/11/08 07:51:19;;;;;;;3.97;0.90;;;;;;;-142.37;100.00;59669.53;5032939;28;20064;-77
2022/11/08 07:53:44;;;;;;;4.70;0.80;;;;;;;-142.37;100.00;59669.53;5035077;28;20033;-79
2022/11/08 07:56:10;;;;;;;4.90;1.08;;;;;;;-142.37;100.00;59669.53;5033526;28;20121;-80
2022/11/08 07:58:36;;;;;;;2.20;0.70;;;;;;;-142.37;100.00;59669.53;5033172;28;20017;-79
2022/11/08 08:01:03;;;;;;;2.50;1.15;;;;;;;-142.37;100.00;59669.53;5032824;28;20105;-75
2022/11/08 08:03:29;;;;;;;2.65;0.90;;;;;;;-142.37;100.00;59669.53;5035726;28;20060;-79
2022/11/08 08:05:55;;;;;;;2.28;1.27;;;;;;;-142.37;100.00;59669.53;5034904;28;20037;-78
2022/11/08 08:08:21;;;;;;;5.15;2.65;;;;;;;-142.37;100.00;59669.53;5035187;28;20095;-74
2022/11/08 08:10:47;;;;;;;2.20;1.40;;;;;;;-142.37;100.00;59669.53;5032908;28;20128;-77
2022/11/08 08:13:12;;;;;;;2.38;1.00;;;;;;;-142.37;100.00;59669.53;5035336;28;20079;-78
2022/11/08 08:15:38;;;;;;;3.15;1.67;;;;;;;-142.37;100.00;59669.53;5034573;28;20029;-76
2022/11/08 08:18:06;;;;;;;2.47;0.90;;;;;;;-142.37;100.00;59669.53;5034080;28;20029;-78
2022/11/08 08:20:33;;;;;;;3.55;1.10;;;;;;;-142.37;100.00;59669.53;5034603;28;20060;-77
2022/11/08 08:22:59;;;;;;;1.48;0.90;;;;;;;-142.37;100.00;59669.53;5034786;28;20053;-79
2022/11/08 08:25:25;;;;;;;2.58;1.13;;;;;;;-142.37;100.00;59669.53;5035058;28;20026;-78
2022/11/08 08:27:53;;;;;;;5.10;1.52;;;;;;;-142.37;100.00;59669.53;5035767;28;20485;-78
2022/11/08 08:30:20;;;;;;;1.92;1.17;;;;;;;-142.37;100.00;59669.53;5033898;28;20033;-76
2022/11/08 08:32:47;;;;;;;3.55;1.27;;;;;;;-142.37;100.00;59669.53;5035202;28;20032;-76
2022/11/08 08:35:13;;;;;;;1.85;0.60;;;;;;;-142.37;100.00;59669.53;5034618;28;20029;-75
2022/11/08 08:37:39;;;;;;;4.03;1.10;;;;;;;-142.37;100.00;59669.53;5034953;28;20029;-78
2022/11/08 08:40:06;;;;;;;2.00;0.95;;;;;;;-142.37;100.00;59669.53;5034547;28;20025;-78
2022/11/08 08:42:33;;;;;;;4.65;1.13;;;;;;;-142.37;100.00;59669.53;5034449;28;20029;-77
2022/11/08 08:44:59;;;;;;;2.10;0.75;;;;;;;-142.37;100.00;59669.53;5033779;28;20022;-75
2022/11/08 08:47:24;;;;;;;4.78;1.20;;;;;;;-142.37;100.00;59669.53;5033818;28;20052;-76
2022/11/08 08:49:50;;;;;;;6.95;2.22;;;;;;;-142.37;100.00;59669.53;5033502;28;20077;-76
2022/11/08 08:52:15;;;;;;;5.32;1.45;;;;;;;-142.37;100.00;59669.53;5031649;28;20030;-76
2022/11/08 08:54:41;;;;;;;5.43;2.35;;;;;;;-142.37;100.00;59669.53;5033615;28;20033;-75
2022/11/08 08:57:07;;;;;;;3.28;1.23;;;;;;;-142.37;100.00;59669.53;5032027;28;20501;-74
2022/11/08 08:59:33;;;;;;;1.80;0.90;;;;;;;-142.37;100.00;59669.53;5033909;28;20025;-75
2022/11/08 09:01:59;;;;;;;2.40;1.20;;;;;;;-142.37;100.00;59669.53;5034193;28;20052;-75
2022/11/08 09:04:27;;;;;;;3.03;1.45;;;;;;;-142.37;100.00;59669.53;5032147;28;20040;-74
2022/11/08 09:06:53;;;;;;;4.90;3.65;;;;;;;-142.37;100.00;59669.53;5032297;28;20149;-76
2022/11/08 09:09:18;;;;;;;6.13;1.80;;;;;;;-142.37;100.00;59669.53;5033966;28;20037;-73
2022/11/08 09:11:44;;;;;;;3.78;1.50;;;;;;;-142.37;100.00;59669.53;5032362;28;20029;-74
2022/11/08 09:14:09;;;;;;;3.67;0.98;;;;;;;-142.37;100.00;59669.53;5032667;28;20068;-75
2022/11/08 09:16:35;;;;;;;2.03;1.10;;;;;;;-142.37;100.00;59669.53;5034333;28;20037;-71
2022/11/08 09:19:01;;;;;;;3.20;1.30;;;;;;;-142.37;100.00;59669.53;5032238;28;20411;-74
2022/11/08 09:21:26;;;;;;;1.50;0.98;;;;;;;-142.37;100.00;59669.53;5032377;28;20088;-72
2022/11/08 09:23:52;;;;;;;2.58;1.30;;;;;;;-142.37;100.00;59669.53;5033328;28;20050;-73
2022/11/08 09:26:18;;;;;;;4.10;1.35;;;;;;;-142.37;100.00;59669.53;5032730;28;20026;-72
2022/11/08 09:28:43;;;;;;;2.80;0.75;;;;;;;-142.37;100.00;59669.53;5033303;28;20036;-72
2022/11/08 09:31:11;;;;;;;2.10;1.05;;;;;;;-142.37;100.00;59669.53;5033310;28;20076;-73
2022/11/08 09:33:39;;;;;;;4.18;1.38;;;;;;;-142.37;100.00;59669.53;5032032;28;20082;-74
2022/11/08 09:36:05;;;;;;;3.63;1.67;;;;;;;-142.37;100.00;59669.53;5032466;28;20030;-71
2022/11/08 09:38:33;;;;;;;3.67;1.30;;;;;;;-142.37;100.00;59669.53;5030913;28;20025;-72
2022/11/08 09:41:25;;;;;;;7.10;4.32;;;;;;;-142.37;100.00;59669.53;5031726;28;20426;-72
2022/11/08 09:44:00;;;;;;;4.30;3.10;;;;;;;-142.37;100.00;59669.53;5031747;28;20068;-71
2022/11/08 09:47:01;;;;;;;3.50;2.00;;;;;;;-142.37;100.00;59669.53;5030254;28;20146;-70
2022/11/08 09:49:30;;;;;;;4.78;2.10;;;;;;;-142.37;100.00;59669.53;5031556;28;20045;-70
2022/11/08 09:51:59;;;;;;;3.45;2.00;;;;;;;-142.37;100.00;59669.53;5031276;28;20044;-69
2022/11/08 09:54:42;;;;;;;1.60;1.10;;;;;;;-142.37;100.00;59669.53;5029699;28;20060;-70
2022/11/08 09:57:21;;;;;;;0.88;0.60;;;;;;;-142.37;100.00;59669.53;5031004;28;20037;-69
2022/11/08 10:00:01;;;;;;;1.45;0.63;;;;;;;-142.37;100.00;59669.53;5030183;28;20036;-70
2022/11/08 10:02:27;;;;;;;1.48;0.90;;;;;;;-142.37;100.00;59669.53;5031165;28;20021;-71
2022/11/08 10:05:17;;;;;;;2.55;0.82;;;;;;;-142.37;100.00;59669.53;5033518;28;20049;-71
2022/11/08 10:07:59;;;;;;;1.98;0.70;;;;;;;-142.37;100.00;59669.53;5029812;28;20037;-72
2022/11/08 10:10:31;;;;;;;0.50;0.40;;;;;;;-142.37;100.00;59669.53;5034950;28;20093;-70
2022/11/08 10:13:05;;;;;;;0.95;0.43;;;;;;;-142.37;100.00;59669.53;5033023;28;20397;-71
2022/11/08 10:15:36;;;;;;;0.88;0.40;;;;;;;-142.37;100.00;59669.53;5033278;28;20057;-69
2022/11/08 10:18:41;;;;;;;0.98;0.55;;;;;;;-142.37;100.00;59669.53;5033112;28;20044;-70
2022/11/08 10:21:25;;;;;;;3.30;1.58;;;;;;;-142.37;100.00;59669.53;5034385;28;20036;-70
2022/11/08 10:24:15;;;;;;;17.60;10.60;;;;;;;-142.37;100.00;59669.53;5034131;28;20041;-69
2022/11/08 10:26:45;;;;;;;3.33;1.67;;;;;;;-142.37;100.00;59669.53;5066310;28;20029;-70
2022/11/08 10:29:19;;;;;;;1.45;0.60;;;;;;;-142.37;100.00;59669.53;5033972;28;20021;-71
2022/11/08 10:31:50;;;;;;;1.03;0.67;;;;;;;-142.37;100.00;59669.53;5033090;28;20139;-69
2022/11/08 10:34:25;;;;;;;0.95;0.65;;;;;;;-142.37;100.00;59669.53;5034589;28;20072;-69
2022/11/08 10:36:58;;;;;;;6.00;1.00;;;;;;;-142.37;100.00;59669.53;5032407;28;20453;-69
2022/11/08 10:39:26;;;;;;;1.05;0.50;;;;;;;-142.37;100.00;59669.53;5033922;28;20520;-72
2022/11/08 10:42:28;;;;;;;2.40;1.00;;;;;;;-142.37;100.00;59669.53;5034145;28;20041;-70
2022/11/08 10:44:54;;;;;;;1.13;0.65;;;;;;;-142.37;100.00;59669.53;5032675;28;20529;-72
2022/11/08 10:47:30;;;;;;;0.57;0.40;;;;;;;-142.37;100.00;59669.53;5033604;28;20101;-70
2022/11/08 10:49:55;;;;;;;0.88;0.38;;;;;;;-142.37;100.00;59669.53;5033684;28;20104;-70
2022/11/08 10:52:30;;;;;;;0.85;0.50;;;;;;;-142.37;100.00;59669.53;5033743;28;20104;-70
2022/11/08 10:54:58;;;;;;;0.75;0.50;;;;;;;-142.37;100.00;59669.53;5032160;28;20032;-70
2022/11/08 10:57:34;;;;;;;2.15;0.65;;;;;;;-142.37;100.00;59669.53;5033644;28;20064;-70
2022/11/08 11:00:18;;;;;;;0.50;0.30;;;;;;;-142.37;100.00;59669.53;5032537;28;20038;-71
2022/11/08 11:02:53;;;;;;;0.67;0.23;;;;;;;-142.37;100.00;59669.53;5032598;28;20108;-71
2022/11/08 11:05:25;;;;;;;0.82;0.50;;;;;;;-142.37;100.00;59669.53;5033534;28;20029;-72
2022/11/08 11:07:59;;;;;;;2.10;0.85;;;;;;;-142.37;100.00;59669.53;5033684;28;20038;-70
2022/11/08 11:10:46;;;;;;;4.18;1.60;;;;;;;-142.37;100.00;59669.53;5031956;28;20037;-69
2022/11/08 11:13:17;;;;;;;2.38;0.93;;;;;;;-142.37;100.00;59669.53;5033602;28;20037;-71
2022/11/08 11:15:45;;;;;;;1.92;0.45;;;;;;;-142.37;100.00;59669.53;5032926;28;20104;-70
2022/11/08 11:18:31;;;;;;;2.70;0.47;;;;;;;-142.37;100.00;59669.53;5030813;28;20434;-69
2022/11/08 11:21:21;;;;;;;1.05;0.55;;;;;;;-142.37;100.00;59669.53;5032896;28;20026;-70
2022/11/08 11:23:48;;;;;;;1.08;0.32;;;;;;;-142.37;100.00;59669.53;5031651;28;20050;-72
2022/11/08 11:26:16;;;;;;;0.75;0.30;;;;;;;-142.37;100.00;59669.53;5031533;28;20379;-70
2022/11/08 11:29:04;;;;;;;1.15;0.30;;;;;;;-142.37;100.00;59669.53;5033203;28;20103;-72
2022/11/08 11:31:32;;;;;;;1.95;0.30;;;;;;;-142.37;100.00;59669.53;5031535;28;20029;-70
2022/11/08 11:33:58;;;;;;;0.80;0.20;;;;;;;-142.37;100.00;59669.53;5033393;28;20040;-70
2022/11/08 11:36:29;;;;;;;3.63;1.02;;;;;;;-142.37;100.00;59669.53;5032559;28;20420;-69